sensor_id;sensor_type;location;lat;lon;timestamp;pressure;altitude;pressure_sealevel;temperature;humidity
43420;BME280;29017;51.514;-0.178;2022-10-31T00:01:44;101271.34;;;15.58;96.19
43420;BME280;29017;51.514;-0.178;2022-10-31T00:04:11;101269.84;;;15.55;96.02
43420;BME280;29017;51.514;-0.178;2022-10-31T00:06:38;101278.63;;;15.56;95.98
43420;BME280;29017;51.514;-0.178;2022-10-31T00:09:05;101274.31;;;15.55;95.92
43420;BME280;29017;51.514;-0.178;2022-10-31T00:11:32;101277.81;;;15.55;96.23
43420;BME280;29017;51.514;-0.178;2022-10-31T00:13:59;101280.66;;;15.54;96.24
43420;BME280;29017;51.514;-0.178;2022-10-31T00:16:26;101280.28;;;15.57;96.79
43420;BME280;29017;51.514;-0.178;2022-10-31T00:18:55;101275.00;;;15.57;97.09
43420;BME280;29017;51.514;-0.178;2022-10-31T00:21:23;101282.94;;;15.57;97.20
43420;BME280;29017;51.514;-0.178;2022-10-31T00:23:50;101279.28;;;15.58;97.24
43420;BME280;29017;51.514;-0.178;2022-10-31T00:26:17;101277.47;;;15.58;97.49
43420;BME280;29017;51.514;-0.178;2022-10-31T00:28:45;101285.22;;;15.60;97.29
43420;BME280;29017;51.514;-0.178;2022-10-31T00:31:12;101286.06;;;15.60;97.17
43420;BME280;29017;51.514;-0.178;2022-10-31T00:33:40;101283.41;;;15.60;97.11
43420;BME280;29017;51.514;-0.178;2022-10-31T00:36:07;101284.25;;;15.61;97.33
43420;BME280;29017;51.514;-0.178;2022-10-31T00:38:34;101284.25;;;15.61;97.55
43420;BME280;29017;51.514;-0.178;2022-10-31T00:41:01;101286.06;;;15.60;97.22
43420;BME280;29017;51.514;-0.178;2022-10-31T00:43:28;101287.09;;;15.59;96.97
43420;BME280;29017;51.514;-0.178;2022-10-31T00:45:55;101287.09;;;15.59;97.29
43420;BME280;29017;51.514;-0.178;2022-10-31T00:48:22;101278.94;;;15.61;97.65
43420;BME280;29017;51.514;-0.178;2022-10-31T00:50:49;101271.81;;;15.61;97.73
43420;BME280;29017;51.514;-0.178;2022-10-31T00:53:16;101277.13;;;15.61;97.78
43420;BME280;29017;51.514;-0.178;2022-10-31T00:55:43;101272.81;;;15.60;97.81
43420;BME280;29017;51.514;-0.178;2022-10-31T00:58:10;101279.94;;;15.60;97.67
43420;BME280;29017;51.514;-0.178;2022-10-31T01:00:39;101279.75;;;15.61;97.64
43420;BME280;29017;51.514;-0.178;2022-10-31T01:03:06;101275.47;;;15.60;97.33
43420;BME280;29017;51.514;-0.178;2022-10-31T01:05:32;101275.28;;;15.62;97.49
43420;BME280;29017;51.514;-0.178;2022-10-31T01:08:00;101270.66;;;15.64;97.64
43420;BME280;29017;51.514;-0.178;2022-10-31T01:10:28;101277.94;;;15.62;97.70
43420;BME280;29017;51.514;-0.178;2022-10-31T01:12:55;101271.19;;;15.59;97.81
43420;BME280;29017;51.514;-0.178;2022-10-31T01:15:22;101267.69;;;15.59;97.47
43420;BME280;29017;51.514;-0.178;2022-10-31T01:17:49;101263.53;;;15.56;97.48
43420;BME280;29017;51.514;-0.178;2022-10-31T01:20:18;101271.50;;;15.56;97.89
43420;BME280;29017;51.514;-0.178;2022-10-31T01:22:46;101271.50;;;15.56;98.14
43420;BME280;29017;51.514;-0.178;2022-10-31T01:25:13;101272.50;;;15.55;97.94
43420;BME280;29017;51.514;-0.178;2022-10-31T01:27:40;101269.38;;;15.52;97.92
43420;BME280;29017;51.514;-0.178;2022-10-31T01:30:07;101264.06;;;15.52;98.22
43420;BME280;29017;51.514;-0.178;2022-10-31T01:32:34;101265.91;;;15.51;98.26
43420;BME280;29017;51.514;-0.178;2022-10-31T01:35:01;101272.03;;;15.52;98.58
43420;BME280;29017;51.514;-0.178;2022-10-31T01:37:30;101265.72;;;15.53;98.70
43420;BME280;29017;51.514;-0.178;2022-10-31T01:39:57;101262.09;;;15.54;98.51
43420;BME280;29017;51.514;-0.178;2022-10-31T01:42:23;101263.91;;;15.53;98.25
43420;BME280;29017;51.514;-0.178;2022-10-31T01:47:19;101264.72;;;15.54;98.20
43420;BME280;29017;51.514;-0.178;2022-10-31T01:49:50;101263.06;;;15.53;98.28
43420;BME280;29017;51.514;-0.178;2022-10-31T01:52:19;101265.91;;;15.51;98.69
43420;BME280;29017;51.514;-0.178;2022-10-31T01:54:48;101263.06;;;15.53;99.04
43420;BME280;29017;51.514;-0.178;2022-10-31T01:57:18;101261.41;;;15.52;98.63
43420;BME280;29017;51.514;-0.178;2022-10-31T01:59:48;101252.63;;;15.51;98.65
43420;BME280;29017;51.514;-0.178;2022-10-31T02:02:16;101258.78;;;15.52;98.89
43420;BME280;29017;51.514;-0.178;2022-10-31T02:04:44;101261.56;;;15.50;99.10
43420;BME280;29017;51.514;-0.178;2022-10-31T02:07:13;101264.19;;;15.50;99.14
43420;BME280;29017;51.514;-0.178;2022-10-31T02:09:41;101254.41;;;15.51;99.22
43420;BME280;29017;51.514;-0.178;2022-10-31T02:12:09;101251.94;;;15.49;99.07
43420;BME280;29017;51.514;-0.178;2022-10-31T02:14:37;101243.97;;;15.49;99.21
43420;BME280;29017;51.514;-0.178;2022-10-31T02:17:04;101250.44;;;15.55;99.74
43420;BME280;29017;51.514;-0.178;2022-10-31T02:22:02;101250.94;;;15.58;99.78
43420;BME280;29017;51.514;-0.178;2022-10-31T02:32:02;101245.81;;;15.57;99.22
43420;BME280;29017;51.514;-0.178;2022-10-31T02:42:04;101247.31;;;15.59;99.43
43420;BME280;29017;51.514;-0.178;2022-10-31T02:47:05;101244.81;;;15.58;99.12
43420;BME280;29017;51.514;-0.178;2022-10-31T02:49:37;101237.03;;;15.56;98.95
43420;BME280;29017;51.514;-0.178;2022-10-31T02:54:35;101235.38;;;15.55;99.05
43420;BME280;29017;51.514;-0.178;2022-10-31T02:57:03;101229.22;;;15.55;99.12
43420;BME280;29017;51.514;-0.178;2022-10-31T02:59:32;101221.47;;;15.53;99.15
43420;BME280;29017;51.514;-0.178;2022-10-31T03:14:31;101221.78;;;15.50;99.39
43420;BME280;29017;51.514;-0.178;2022-10-31T03:17:04;101226.25;;;15.50;99.37
43420;BME280;29017;51.514;-0.178;2022-10-31T03:19:34;101224.41;;;15.50;99.59
43420;BME280;29017;51.514;-0.178;2022-10-31T03:22:07;101218.16;;;15.51;99.76
43420;BME280;29017;51.514;-0.178;2022-10-31T03:24:37;101220.09;;;15.49;99.71
43420;BME280;29017;51.514;-0.178;2022-10-31T03:27:05;101218.28;;;15.50;99.84
43420;BME280;29017;51.514;-0.178;2022-10-31T03:29:34;101216.66;;;15.49;99.68
43420;BME280;29017;51.514;-0.178;2022-10-31T03:32:03;101217.47;;;15.49;99.80
43420;BME280;29017;51.514;-0.178;2022-10-31T03:34:32;101208.69;;;15.49;99.71
43420;BME280;29017;51.514;-0.178;2022-10-31T03:37:00;101206.84;;;15.49;99.56
43420;BME280;29017;51.514;-0.178;2022-10-31T03:39:28;101211.16;;;15.50;99.55
43420;BME280;29017;51.514;-0.178;2022-10-31T03:41:59;101217.47;;;15.49;99.66
43420;BME280;29017;51.514;-0.178;2022-10-31T03:44:26;101214.81;;;15.49;99.54
43420;BME280;29017;51.514;-0.178;2022-10-31T03:46:54;101215.16;;;15.46;99.42
43420;BME280;29017;51.514;-0.178;2022-10-31T03:49:21;101212.69;;;15.45;99.64
43420;BME280;29017;51.514;-0.178;2022-10-31T03:56:49;101216.53;;;15.42;99.77
43420;BME280;29017;51.514;-0.178;2022-10-31T03:59:18;101212.03;;;15.43;99.81
43420;BME280;29017;51.514;-0.178;2022-10-31T04:01:48;101214.03;;;15.40;99.85
43420;BME280;29017;51.514;-0.178;2022-10-31T04:04:17;101216.53;;;15.42;100.00
43420;BME280;29017;51.514;-0.178;2022-10-31T04:06:45;101209.56;;;15.41;99.86
43420;BME280;29017;51.514;-0.178;2022-10-31T04:09:13;101222.00;;;15.40;99.79
43420;BME280;29017;51.514;-0.178;2022-10-31T04:11:42;101218.50;;;15.40;99.87
43420;BME280;29017;51.514;-0.178;2022-10-31T04:14:12;101222.16;;;15.39;99.83
43420;BME280;29017;51.514;-0.178;2022-10-31T04:16:40;101224.19;;;15.37;99.39
43420;BME280;29017;51.514;-0.178;2022-10-31T04:19:10;101214.56;;;15.36;99.56
43420;BME280;29017;51.514;-0.178;2022-10-31T04:21:37;101214.72;;;15.34;99.89
43420;BME280;29017;51.514;-0.178;2022-10-31T04:24:04;101206.78;;;15.34;99.88
43420;BME280;29017;51.514;-0.178;2022-10-31T04:26:31;101208.28;;;15.29;99.77
43420;BME280;29017;51.514;-0.178;2022-10-31T04:28:58;101209.31;;;15.28;99.90
43420;BME280;29017;51.514;-0.178;2022-10-31T04:31:25;101207.50;;;15.28;100.00
43420;BME280;29017;51.514;-0.178;2022-10-31T04:33:52;101208.50;;;15.27;100.00
43420;BME280;29017;51.514;-0.178;2022-10-31T04:36:19;101202.34;;;15.27;100.00
43420;BME280;29017;51.514;-0.178;2022-10-31T04:38:46;101194.56;;;15.25;100.00
43420;BME280;29017;51.514;-0.178;2022-10-31T04:41:14;101202.34;;;15.27;100.00
43420;BME280;29017;51.514;-0.178;2022-10-31T04:43:41;101189.09;;;15.27;100.00
43420;BME280;29017;51.514;-0.178;2022-10-31T04:46:07;101194.41;;;15.27;100.00
43420;BME280;29017;51.514;-0.178;2022-10-31T04:48:34;101192.56;;;15.27;100.00
43420;BME280;29017;51.514;-0.178;2022-10-31T04:51:01;101181.97;;;15.27;100.00
43420;BME280;29017;51.514;-0.178;2022-10-31T04:53:28;101176.84;;;15.26;100.00
43420;BME280;29017;51.514;-0.178;2022-10-31T04:55:57;101181.31;;;15.25;100.00
43420;BME280;29017;51.514;-0.178;2022-10-31T04:58:24;101186.78;;;15.24;100.00
43420;BME280;29017;51.514;-0.178;2022-10-31T05:00:51;101178.81;;;15.24;100.00
43420;BME280;29017;51.514;-0.178;2022-10-31T05:03:18;101171.06;;;15.22;100.00
43420;BME280;29017;51.514;-0.178;2022-10-31T05:05:46;101175.69;;;15.20;100.00
43420;BME280;29017;51.514;-0.178;2022-10-31T05:08:13;101180.00;;;15.21;100.00
43420;BME280;29017;51.514;-0.178;2022-10-31T05:10:40;101179.84;;;15.23;100.00
43420;BME280;29017;51.514;-0.178;2022-10-31T05:13:07;101180.69;;;15.23;100.00
43420;BME280;29017;51.514;-0.178;2022-10-31T05:15:34;101183.13;;;15.25;100.00
43420;BME280;29017;51.514;-0.178;2022-10-31T05:18:01;101181.47;;;15.24;100.00
43420;BME280;29017;51.514;-0.178;2022-10-31T05:20:29;101176.16;;;15.24;100.00
43420;BME280;29017;51.514;-0.178;2022-10-31T05:22:57;101173.53;;;15.24;100.00
43420;BME280;29017;51.514;-0.178;2022-10-31T05:25:24;101179.47;;;15.26;100.00
43420;BME280;29017;51.514;-0.178;2022-10-31T05:27:53;101176.00;;;15.25;100.00
43420;BME280;29017;51.514;-0.178;2022-10-31T05:30:21;101170.69;;;15.25;100.00
43420;BME280;29017;51.514;-0.178;2022-10-31T05:32:49;101163.59;;;15.26;100.00
43420;BME280;29017;51.514;-0.178;2022-10-31T05:35:17;101154.78;;;15.25;100.00
43420;BME280;29017;51.514;-0.178;2022-10-31T05:37:45;101149.66;;;15.24;100.00
43420;BME280;29017;51.514;-0.178;2022-10-31T05:40:12;101153.97;;;15.25;100.00
43420;BME280;29017;51.514;-0.178;2022-10-31T05:42:40;101152.31;;;15.24;100.00
43420;BME280;29017;51.514;-0.178;2022-10-31T05:45:08;101142.72;;;15.23;100.00
43420;BME280;29017;51.514;-0.178;2022-10-31T05:47:35;101160.47;;;15.22;100.00
43420;BME280;29017;51.514;-0.178;2022-10-31T05:50:02;101157.97;;;15.21;100.00
43420;BME280;29017;51.514;-0.178;2022-10-31T05:52:29;101159.16;;;15.18;100.00
43420;BME280;29017;51.514;-0.178;2022-10-31T05:54:56;101158.34;;;15.18;100.00
43420;BME280;29017;51.514;-0.178;2022-10-31T05:57:23;101147.72;;;15.18;100.00
43420;BME280;29017;51.514;-0.178;2022-10-31T05:59:50;101156.69;;;15.17;100.00
43420;BME280;29017;51.514;-0.178;2022-10-31T06:02:20;101154.84;;;15.17;100.00
43420;BME280;29017;51.514;-0.178;2022-10-31T06:04:47;101150.56;;;15.16;100.00
43420;BME280;29017;51.514;-0.178;2022-10-31T06:07:15;101148.06;;;15.15;100.00
43420;BME280;29017;51.514;-0.178;2022-10-31T06:09:42;101147.44;;;15.13;100.00
43420;BME280;29017;51.514;-0.178;2022-10-31T06:12:09;101146.41;;;15.14;100.00
43420;BME280;29017;51.514;-0.178;2022-10-31T06:14:36;101145.59;;;15.13;100.00
43420;BME280;29017;51.514;-0.178;2022-10-31T06:17:03;101147.44;;;15.13;100.00
43420;BME280;29017;51.514;-0.178;2022-10-31T06:19:30;101139.47;;;15.13;100.00
43420;BME280;29017;51.514;-0.178;2022-10-31T06:21:56;101135.00;;;15.13;100.00
43420;BME280;29017;51.514;-0.178;2022-10-31T06:24:23;101132.34;;;15.13;100.00
43420;BME280;29017;51.514;-0.178;2022-10-31T06:26:50;101140.31;;;15.13;100.00
43420;BME280;29017;51.514;-0.178;2022-10-31T06:29:17;101135.63;;;15.15;100.00
43420;BME280;29017;51.514;-0.178;2022-10-31T06:31:44;101147.44;;;15.13;100.00
43420;BME280;29017;51.514;-0.178;2022-10-31T06:34:10;101146.59;;;15.12;100.00
43420;BME280;29017;51.514;-0.178;2022-10-31T06:36:37;101147.44;;;15.13;100.00
43420;BME280;29017;51.514;-0.178;2022-10-31T06:39:04;101132.53;;;15.12;100.00
43420;BME280;29017;51.514;-0.178;2022-10-31T06:41:31;101142.97;;;15.13;100.00
43420;BME280;29017;51.514;-0.178;2022-10-31T06:43:58;101129.69;;;15.13;100.00
43420;BME280;29017;51.514;-0.178;2022-10-31T06:46:31;101134.19;;;15.13;100.00
43420;BME280;29017;51.514;-0.178;2022-10-31T06:48:58;101125.19;;;15.14;100.00
43420;BME280;29017;51.514;-0.178;2022-10-31T06:51:25;101126.84;;;15.15;100.00
43420;BME280;29017;51.514;-0.178;2022-10-31T06:53:52;101136.47;;;15.16;100.00
43420;BME280;29017;51.514;-0.178;2022-10-31T06:56:19;101128.16;;;15.19;100.00
43420;BME280;29017;51.514;-0.178;2022-10-31T06:58:46;101126.81;;;15.23;100.00
43420;BME280;29017;51.514;-0.178;2022-10-31T07:01:13;101118.03;;;15.22;100.00
43420;BME280;29017;51.514;-0.178;2022-10-31T07:03:40;101121.69;;;15.21;100.00
43420;BME280;29017;51.514;-0.178;2022-10-31T07:06:07;101117.53;;;15.19;100.00
43420;BME280;29017;51.514;-0.178;2022-10-31T07:08:33;101111.44;;;15.18;100.00
43420;BME280;29017;51.514;-0.178;2022-10-31T07:11:00;101112.06;;;15.20;100.00
43420;BME280;29017;51.514;-0.178;2022-10-31T07:13:27;101117.06;;;15.23;100.00
43420;BME280;29017;51.514;-0.178;2022-10-31T07:15:55;101111.56;;;15.25;100.00
43420;BME280;29017;51.514;-0.178;2022-10-31T07:18:22;101113.19;;;15.26;100.00
43420;BME280;29017;51.514;-0.178;2022-10-31T07:20:49;101114.19;;;15.25;99.91
43420;BME280;29017;51.514;-0.178;2022-10-31T07:23:16;101124.16;;;15.23;99.50
43420;BME280;29017;51.514;-0.178;2022-10-31T07:25:43;101115.19;;;15.24;99.48
43420;BME280;29017;51.514;-0.178;2022-10-31T07:28:10;101113.38;;;15.24;99.55
43420;BME280;29017;51.514;-0.178;2022-10-31T07:30:37;101107.06;;;15.25;99.60
43420;BME280;29017;51.514;-0.178;2022-10-31T07:33:04;101106.91;;;15.27;99.46
43420;BME280;29017;51.514;-0.178;2022-10-31T07:35:32;101105.09;;;15.27;99.51
43420;BME280;29017;51.514;-0.178;2022-10-31T07:38:06;101111.84;;;15.30;99.57
43420;BME280;29017;51.514;-0.178;2022-10-31T07:40:33;101109.03;;;15.31;99.41
43420;BME280;29017;51.514;-0.178;2022-10-31T07:43:00;101111.50;;;15.33;99.37
43420;BME280;29017;51.514;-0.178;2022-10-31T07:45:27;101109.69;;;15.33;99.10
43420;BME280;29017;51.514;-0.178;2022-10-31T07:47:54;101109.50;;;15.35;99.10
43420;BME280;29017;51.514;-0.178;2022-10-31T07:50:22;101108.50;;;15.36;99.33
43420;BME280;29017;51.514;-0.178;2022-10-31T07:55:20;101109.78;;;15.40;99.07
43420;BME280;29017;51.514;-0.178;2022-10-31T07:57:54;101099.84;;;15.42;99.01
43420;BME280;29017;51.514;-0.178;2022-10-31T08:00:21;101106.59;;;15.45;98.95
43420;BME280;29017;51.514;-0.178;2022-10-31T08:02:55;101115.22;;;15.47;98.99
43420;BME280;29017;51.514;-0.178;2022-10-31T08:05:23;101106.25;;;15.48;98.92
43420;BME280;29017;51.514;-0.178;2022-10-31T08:07:50;101098.09;;;15.49;98.86
43420;BME280;29017;51.514;-0.178;2022-10-31T08:10:17;101109.22;;;15.53;99.21
43420;BME280;29017;51.514;-0.178;2022-10-31T08:12:43;101115.81;;;15.57;98.96
43420;BME280;29017;51.514;-0.178;2022-10-31T08:15:11;101115.75;;;15.65;99.16
43420;BME280;29017;51.514;-0.178;2022-10-31T08:17:38;101109.72;;;15.71;98.59
43420;BME280;29017;51.514;-0.178;2022-10-31T08:20:05;101112.03;;;15.74;98.29
43420;BME280;29017;51.514;-0.178;2022-10-31T08:22:32;101103.88;;;15.75;98.15
43420;BME280;29017;51.514;-0.178;2022-10-31T08:25:02;101106.53;;;15.75;97.92
43420;BME280;29017;51.514;-0.178;2022-10-31T08:27:30;101102.72;;;15.78;98.09
43420;BME280;29017;51.514;-0.178;2022-10-31T08:29:57;101094.75;;;15.78;97.85
43420;BME280;29017;51.514;-0.178;2022-10-31T08:32:24;101090.06;;;15.80;97.78
43420;BME280;29017;51.514;-0.178;2022-10-31T08:34:51;101100.53;;;15.81;97.58
43420;BME280;29017;51.514;-0.178;2022-10-31T08:37:18;101102.00;;;15.84;97.59
43420;BME280;29017;51.514;-0.178;2022-10-31T08:39:46;101104.44;;;15.86;97.71
43420;BME280;29017;51.514;-0.178;2022-10-31T08:42:14;101098.31;;;15.85;97.61
43420;BME280;29017;51.514;-0.178;2022-10-31T08:44:41;101086.72;;;15.86;97.59
43420;BME280;29017;51.514;-0.178;2022-10-31T08:47:08;101085.53;;;15.89;97.95
43420;BME280;29017;51.514;-0.178;2022-10-31T08:49:34;101081.69;;;15.91;98.06
43420;BME280;29017;51.514;-0.178;2022-10-31T08:52:02;101081.34;;;15.94;97.97
43420;BME280;29017;51.514;-0.178;2022-10-31T08:54:29;101079.13;;;15.98;97.45
43420;BME280;29017;51.514;-0.178;2022-10-31T08:56:56;101073.44;;;16.01;96.73
43420;BME280;29017;51.514;-0.178;2022-10-31T08:59:23;101075.75;;;16.04;96.49
43420;BME280;29017;51.514;-0.178;2022-10-31T09:01:50;101075.38;;;16.07;96.18
43420;BME280;29017;51.514;-0.178;2022-10-31T09:04:17;101079.13;;;16.12;96.63
43420;BME280;29017;51.514;-0.178;2022-10-31T09:06:44;101078.59;;;16.17;96.34
43420;BME280;29017;51.514;-0.178;2022-10-31T09:09:31;101074.56;;;16.21;95.83
43420;BME280;29017;51.514;-0.178;2022-10-31T09:11:58;101071.34;;;16.25;96.04
43420;BME280;29017;51.514;-0.178;2022-10-31T09:14:25;101069.16;;;16.29;95.75
43420;BME280;29017;51.514;-0.178;2022-10-31T09:16:53;101062.66;;;16.32;94.80
43420;BME280;29017;51.514;-0.178;2022-10-31T09:19:20;101058.88;;;16.41;95.58
43420;BME280;29017;51.514;-0.178;2022-10-31T09:21:47;101044.50;;;16.50;95.86
43420;BME280;29017;51.514;-0.178;2022-10-31T09:24:13;101049.69;;;16.58;96.31
43420;BME280;29017;51.514;-0.178;2022-10-31T09:26:41;101056.53;;;16.60;95.47
43420;BME280;29017;51.514;-0.178;2022-10-31T09:29:07;101053.09;;;16.66;94.51
43420;BME280;29017;51.514;-0.178;2022-10-31T09:31:36;101045.59;;;16.70;93.56
43420;BME280;29017;51.514;-0.178;2022-10-31T09:34:09;101048.69;;;16.74;93.67
43420;BME280;29017;51.514;-0.178;2022-10-31T09:36:37;101048.78;;;16.80;93.72
43420;BME280;29017;51.514;-0.178;2022-10-31T09:39:04;101044.28;;;16.81;92.89
43420;BME280;29017;51.514;-0.178;2022-10-31T09:51:34;101024.91;;;16.87;91.00
43420;BME280;29017;51.514;-0.178;2022-10-31T09:56:34;101024.53;;;16.90;90.35
43420;BME280;29017;51.514;-0.178;2022-10-31T09:59:03;101011.06;;;16.91;89.95
43420;BME280;29017;51.514;-0.178;2022-10-31T10:06:34;101014.66;;;17.05;89.77
43420;BME280;29017;51.514;-0.178;2022-10-31T10:09:03;101010.19;;;17.05;89.22
43420;BME280;29017;51.514;-0.178;2022-10-31T10:26:29;100982.84;;;17.12;87.93
43420;BME280;29017;51.514;-0.178;2022-10-31T10:28:58;100986.28;;;17.12;87.36
43420;BME280;29017;51.514;-0.178;2022-10-31T10:31:30;100986.94;;;17.14;87.25
43420;BME280;29017;51.514;-0.178;2022-10-31T10:39:03;100989.84;;;17.19;87.75
43420;BME280;29017;51.514;-0.178;2022-10-31T10:41:31;100988.25;;;17.25;87.45
43420;BME280;29017;51.514;-0.178;2022-10-31T10:44:00;100990.72;;;17.26;86.98
43420;BME280;29017;51.514;-0.178;2022-10-31T10:59:21;100961.78;;;17.44;84.67
43420;BME280;29017;51.514;-0.178;2022-10-31T11:01:50;100958.94;;;17.46;84.26
43420;BME280;29017;51.514;-0.178;2022-10-31T11:09:22;100943.41;;;17.49;83.60
43420;BME280;29017;51.514;-0.178;2022-10-31T11:11:49;100947.91;;;17.49;83.65
43420;BME280;29017;51.514;-0.178;2022-10-31T11:14:16;100946.06;;;17.49;83.38
43420;BME280;29017;51.514;-0.178;2022-10-31T11:16:45;100930.16;;;17.56;84.76
43420;BME280;29017;51.514;-0.178;2022-10-31T11:19:17;100922.22;;;17.63;85.69
43420;BME280;29017;51.514;-0.178;2022-10-31T11:21:45;100920.84;;;17.67;86.28
43420;BME280;29017;51.514;-0.178;2022-10-31T11:24:20;100924.91;;;17.69;86.31
43420;BME280;29017;51.514;-0.178;2022-10-31T11:26:48;100916.94;;;17.69;86.05
43420;BME280;29017;51.514;-0.178;2022-10-31T11:29:17;100913.25;;;17.70;86.34
43420;BME280;29017;51.514;-0.178;2022-10-31T11:31:47;100921.06;;;17.72;86.05
43420;BME280;29017;51.514;-0.178;2022-10-31T11:34:16;100910.19;;;17.73;85.86
43420;BME280;29017;51.514;-0.178;2022-10-31T11:36:45;100905.09;;;17.72;83.97
43420;BME280;29017;51.514;-0.178;2022-10-31T11:39:15;100906.72;;;17.73;82.98
43420;BME280;29017;51.514;-0.178;2022-10-31T11:41:43;100906.16;;;17.77;83.00
43420;BME280;29017;51.514;-0.178;2022-10-31T11:44:13;100901.22;;;17.81;82.68
43420;BME280;29017;51.514;-0.178;2022-10-31T11:46:43;100892.84;;;17.84;81.68
43420;BME280;29017;51.514;-0.178;2022-10-31T11:51:41;100877.69;;;17.84;80.54
43420;BME280;29017;51.514;-0.178;2022-10-31T11:56:39;100864.78;;;17.88;81.20
43420;BME280;29017;51.514;-0.178;2022-10-31T12:01:47;100846.16;;;17.88;80.60
43420;BME280;29017;51.514;-0.178;2022-10-31T12:04:15;100840.81;;;17.88;80.35
43420;BME280;29017;51.514;-0.178;2022-10-31T12:06:44;100840.63;;;17.89;80.19
43420;BME280;29017;51.514;-0.178;2022-10-31T12:09:25;100834.09;;;17.92;80.10
43420;BME280;29017;51.514;-0.178;2022-10-31T12:12:02;100841.06;;;17.93;78.96
43420;BME280;29017;51.514;-0.178;2022-10-31T12:19:38;100826.94;;;17.92;78.38
43420;BME280;29017;51.514;-0.178;2022-10-31T12:27:17;100808.28;;;17.86;76.95
43420;BME280;29017;51.514;-0.178;2022-10-31T12:30:00;100797.00;;;17.84;76.55
43420;BME280;29017;51.514;-0.178;2022-10-31T12:35:01;100781.25;;;17.82;77.49
43420;BME280;29017;51.514;-0.178;2022-10-31T12:42:54;100765.28;;;17.82;78.32
43420;BME280;29017;51.514;-0.178;2022-10-31T12:58:06;100734.34;;;17.94;78.95
43420;BME280;29017;51.514;-0.178;2022-10-31T13:00:36;100727.59;;;17.99;78.58
43420;BME280;29017;51.514;-0.178;2022-10-31T13:05:44;100716.31;;;18.03;78.77
43420;BME280;29017;51.514;-0.178;2022-10-31T13:08:15;100718.78;;;18.05;78.31
43420;BME280;29017;51.514;-0.178;2022-10-31T13:10:46;100704.66;;;18.04;78.31
43420;BME280;29017;51.514;-0.178;2022-10-31T13:13:17;100688.69;;;18.04;78.54
43420;BME280;29017;51.514;-0.178;2022-10-31T13:15:47;100688.09;;;18.02;78.95
43420;BME280;29017;51.514;-0.178;2022-10-31T13:18:18;100693.41;;;18.02;79.02
43420;BME280;29017;51.514;-0.178;2022-10-31T13:20:48;100678.03;;;18.04;79.87
43420;BME280;29017;51.514;-0.178;2022-10-31T13:26:09;100668.19;;;18.05;78.13
43420;BME280;29017;51.514;-0.178;2022-10-31T13:28:43;100651.00;;;18.07;78.92
43420;BME280;29017;51.514;-0.178;2022-10-31T13:31:12;100656.31;;;18.14;81.55
43420;BME280;29017;51.514;-0.178;2022-10-31T13:36:11;100630.91;;;18.11;79.75
43420;BME280;29017;51.514;-0.178;2022-10-31T13:46:21;100601.44;;;18.06;78.71
43420;BME280;29017;51.514;-0.178;2022-10-31T13:48:49;100598.97;;;18.05;78.40
43420;BME280;29017;51.514;-0.178;2022-10-31T13:51:25;100588.50;;;18.03;78.50
43420;BME280;29017;51.514;-0.178;2022-10-31T13:56:29;100575.41;;;18.02;79.15
43420;BME280;29017;51.514;-0.178;2022-10-31T14:01:25;100575.63;;;18.00;80.26
43420;BME280;29017;51.514;-0.178;2022-10-31T14:04:00;100570.72;;;17.97;80.44
43420;BME280;29017;51.514;-0.178;2022-10-31T14:11:46;100558.22;;;17.91;78.81
43420;BME280;29017;51.514;-0.178;2022-10-31T14:14:14;100555.75;;;17.89;79.29
43420;BME280;29017;51.514;-0.178;2022-10-31T14:16:42;100530.97;;;17.89;79.44
43420;BME280;29017;51.514;-0.178;2022-10-31T14:19:15;100541.03;;;17.87;79.03
43420;BME280;29017;51.514;-0.178;2022-10-31T14:21:44;100536.72;;;17.86;79.39
43420;BME280;29017;51.514;-0.178;2022-10-31T14:24:15;100527.09;;;17.85;80.07
43420;BME280;29017;51.514;-0.178;2022-10-31T14:26:56;100519.53;;;17.82;79.90
43420;BME280;29017;51.514;-0.178;2022-10-31T14:31:52;100513.81;;;17.78;79.50
43420;BME280;29017;51.514;-0.178;2022-10-31T14:39:24;100489.03;;;17.78;79.67
43420;BME280;29017;51.514;-0.178;2022-10-31T14:41:58;100497.25;;;17.76;79.40
43420;BME280;29017;51.514;-0.178;2022-10-31T14:49:42;100476.97;;;17.75;79.43
43420;BME280;29017;51.514;-0.178;2022-10-31T14:52:14;100481.28;;;17.76;80.74
43420;BME280;29017;51.514;-0.178;2022-10-31T14:54:45;100464.69;;;17.74;80.40
43420;BME280;29017;51.514;-0.178;2022-10-31T14:57:15;100462.22;;;17.73;79.53
43420;BME280;29017;51.514;-0.178;2022-10-31T14:59:44;100451.19;;;17.69;79.38
43420;BME280;29017;51.514;-0.178;2022-10-31T15:04:43;100432.97;;;17.66;79.90
43420;BME280;29017;51.514;-0.178;2022-10-31T15:07:14;100423.78;;;17.62;78.92
43420;BME280;29017;51.514;-0.178;2022-10-31T15:09:57;100427.81;;;17.58;78.73
43420;BME280;29017;51.514;-0.178;2022-10-31T15:12:26;100411.69;;;17.60;79.69
43420;BME280;29017;51.514;-0.178;2022-10-31T15:14:54;100414.16;;;17.61;81.54
43420;BME280;29017;51.514;-0.178;2022-10-31T15:17:22;100400.03;;;17.61;81.27
43420;BME280;29017;51.514;-0.178;2022-10-31T15:19:50;100403.72;;;17.60;80.18
43420;BME280;29017;51.514;-0.178;2022-10-31T15:22:18;100394.50;;;17.56;79.57
43420;BME280;29017;51.514;-0.178;2022-10-31T15:24:46;100386.50;;;17.56;80.06
43420;BME280;29017;51.514;-0.178;2022-10-31T15:27:15;100382.22;;;17.54;79.85
43420;BME280;29017;51.514;-0.178;2022-10-31T15:32:21;100368.06;;;17.54;80.38
43420;BME280;29017;51.514;-0.178;2022-10-31T15:34:50;100363.19;;;17.51;79.78
43420;BME280;29017;51.514;-0.178;2022-10-31T15:37:19;100363.19;;;17.51;80.33
43420;BME280;29017;51.514;-0.178;2022-10-31T15:39:47;100361.56;;;17.50;80.65
43420;BME280;29017;51.514;-0.178;2022-10-31T15:44:42;100337.81;;;17.48;80.25
43420;BME280;29017;51.514;-0.178;2022-10-31T15:49:49;100321.84;;;17.48;81.96
43420;BME280;29017;51.514;-0.178;2022-10-31T15:52:20;100321.03;;;17.48;82.03